Gibsonville, NC

11:58 AM EDT on March 27, 2015 (GMT -0400)
Osceola/NE Guilford | | Change Station
CLOSE
Current Station
Personal Weather Station
Location: Browns Summit, NC
Elevation: 721 ft
Nearby Weather Stations

Elev 721 ft 36.20 °N, 79.61 °W | Updated 20 seconds ago

Overcast
Overcast
44.3 °F
Feels Like 44 °F
N
0.0
Wind Variable Wind from NNE
Gusts 0.0 mph

Today
High -- | Low -- °F
--% Chance of Precip.
Yesterday
High -- | Low -- °F
Precip. -- in
7:12 AM 7:35 PM
First Quarter, 53% visible
Pressure 29.76 in
Visibility 10.0 miles
Clouds Scattered Clouds 900 ft
Mostly Cloudy 1800 ft
Overcast 2600 ft
Windchill 44 °F
Dew Point 42 °F
Humidity 93%
Rainfall 0.36 in
Snow Depth Not available.
UV 2 out of 12
Pollen 4.50 out of 12
Air Quality Not available.
Flu Activity Not available.
METAR KBUY 271554Z AUTO 36010G17KT 10SM -RA SCT009 BKN018 OVC026 08/07 A2977 RMK AO2 SLP077 P0005 T00780067

More Conditions Fewer Conditions

Pressure 29.76 in
Visibility 10.0 miles
Clouds Scattered Clouds 900 ft
Mostly Cloudy 1800 ft
Overcast 2600 ft
Windchill 44 °F
Dew Point 42 °F
Humidity 93%
Rainfall 0.36 in
Snow Depth Not available.
UV 2 out of 12
Pollen 4.50 out of 12
Air Quality Not available.
Flu Activity Not available.
METAR KBUY 271554Z AUTO 36010G17KT 10SM -RA SCT009 BKN018 OVC026 08/07 A2977 RMK AO2 SLP077 P0005 T00780067

More Conditions Fewer Conditions

10-Day Weather Forecast

Almanac

Astronomy

Mar. 27, 2015 Rise Set
Actual Time
Civil Twilight
Nautical Twilight
Astronomical Twilight
Moon
Length of Visible Light
Length of Day
Tomorrow will be .
, % of the Moon is Illuminated

Today's Extremes

State Highs State Lows

Community

WunderPhotos

Upload Photos

1,808,762 photos uploaded!

WunderBlogs® & News

Nearby

Air Quality

  Air Quality AQ Index Pollutant
Not available.

Snow Depth

Station Depth Elevation

Earthquake Activity

City Distance Mag. Time & Date
Minimum magnitude displayed is 2.5.

Coastal Water Temperatures

Place Temperature

Stations

Nearby Weather Stations

Station Location Temp. Windchill Dew Point Humidity Wind Precip. Elev Updated Type